Time;durP1;ratioP1;P1;durP2;ratioP2;P2;SDS_P1;SDS_P2;PMS_P1;PMS_P2;Temp;Humidity;BMP_temperature;BMP_pressure;BME280_temperature;BME280_humidity;BME280_pressure;Samples;Min_cycle;Max_cycle;Signal;HPM_P1;HPM_P2
2023/06/11 00:01:57;;;;;;;21.73;13.95;;;;;;;21.25;75.76;101473.41;5068179;28;20712;-73
2023/06/11 00:04:27;;;;;;;15.95;12.77;;;;;;;21.24;75.98;101467.13;5071991;28;20041;-73
2023/06/11 00:06:56;;;;;;;17.08;13.75;;;;;;;21.19;77.13;101470.28;5055061;28;20032;-73
2023/06/11 00:09:26;;;;;;;17.73;14.20;;;;;;;21.15;77.33;101468.88;5075765;28;20119;-73
2023/06/11 00:11:53;;;;;;;21.10;13.20;;;;;;;21.14;77.05;101467.16;5076453;28;20036;-73
2023/06/11 00:14:20;;;;;;;21.20;13.60;;;;;;;21.13;76.88;101468.16;5040264;28;20037;-73
2023/06/11 00:16:45;;;;;;;15.15;13.05;;;;;;;21.12;77.06;101466.44;5048909;28;20033;-73
2023/06/11 00:19:12;;;;;;;18.65;13.68;;;;;;;21.15;77.17;101468.88;5053057;28;20048;-72
2023/06/11 00:21:44;;;;;;;21.75;14.45;;;;;;;21.15;77.03;101462.59;5068160;28;20079;-73
2023/06/11 00:24:14;;;;;;;18.45;14.07;;;;;;;21.11;77.69;101458.47;5056724;28;20091;-73
2023/06/11 00:26:41;;;;;;;18.48;14.30;;;;;;;21.12;77.93;101462.88;5064175;28;20032;-72
2023/06/11 00:29:11;;;;;;;18.38;14.20;;;;;;;21.12;77.95;101454.75;5054416;28;20122;-73
2023/06/11 00:31:36;;;;;;;18.40;14.68;;;;;;;21.09;78.56;101458.63;5067777;28;20074;-73
2023/06/11 00:34:02;;;;;;;16.92;14.07;;;;;;;21.03;79.19;101456.50;5044214;28;20828;-73
2023/06/11 00:36:29;;;;;;;19.63;15.05;;;;;;;21.01;79.58;101452.25;5046949;28;20128;-72
2023/06/11 00:38:55;;;;;;;19.60;15.25;;;;;;;21.00;79.96;101450.53;5066296;28;20033;-73
2023/06/11 00:41:24;;;;;;;18.20;14.25;;;;;;;20.87;81.35;101457.16;5052914;28;20044;-73
2023/06/11 00:43:54;;;;;;;23.83;14.75;;;;;;;20.88;81.54;101452.56;5070580;28;20060;-73
2023/06/11 00:46:21;;;;;;;19.42;14.13;;;;;;;20.91;81.67;101455.84;5068169;28;20043;-72
2023/06/11 00:48:47;;;;;;;18.95;14.07;;;;;;;20.86;82.80;101450.03;5067432;28;20044;-73
2023/06/11 00:51:13;;;;;;;23.88;14.30;;;;;;;20.89;82.64;101444.31;5058042;28;20152;-73
2023/06/11 00:53:40;;;;;;;19.05;14.20;;;;;;;20.81;83.70;101457.75;5058388;28;20032;-73
2023/06/11 00:56:06;;;;;;;16.13;13.30;;;;;;;20.75;84.93;101458.34;5068676;28;20525;-73
2023/06/11 00:58:33;;;;;;;18.88;14.52;;;;;;;20.83;84.23;101454.88;5060204;28;20508;-73
2023/06/11 01:01:00;;;;;;;16.17;12.55;;;;;;;20.77;84.79;101459.03;5041493;28;20926;-73
2023/06/11 01:03:27;;;;;;;20.95;13.23;;;;;;;20.78;85.77;101454.47;5057439;28;20036;-73
2023/06/11 01:06:01;;;;;;;19.13;14.23;;;;;;;20.78;85.51;101451.75;5063798;28;20044;-73
2023/06/11 01:08:30;;;;;;;17.38;12.82;;;;;;;20.73;86.48;101448.63;5063731;28;20036;-73
2023/06/11 01:11:01;;;;;;;17.58;13.35;;;;;;;20.83;85.64;101455.72;5047552;28;20028;-74
2023/06/11 01:13:30;;;;;;;15.10;12.77;;;;;;;20.78;86.06;101454.47;5048865;28;20034;-73
2023/06/11 01:16:02;;;;;;;18.25;13.10;;;;;;;20.77;86.34;101447.34;5037206;28;20037;-73
2023/06/11 01:18:32;;;;;;;;;;;;;;;20.86;85.63;101449.16;5066955;28;20040;-74
2023/06/11 01:21:12;;;;;;;17.45;12.02;;;;;;;20.81;86.05;101452.31;5058654;28;20574;-73
2023/06/11 01:23:46;;;;;;;15.10;13.00;;;;;;;20.81;85.57;101449.63;5050982;28;20123;-74
2023/06/11 01:26:42;;;;;;;14.52;11.90;;;;;;;20.88;85.61;101447.16;5037999;28;20044;-73
2023/06/11 01:29:15;;;;;;;16.13;11.70;;;;;;;20.82;85.74;101454.03;5047050;28;20036;-74
2023/06/11 01:31:42;;;;;;;15.00;12.60;;;;;;;20.66;87.53;101449.25;5017656;28;20024;-74
2023/06/11 01:34:10;;;;;;;22.60;14.00;;;;;;;20.71;87.08;101447.94;5035049;28;20608;-73
2023/06/11 01:36:37;;;;;;;14.50;12.30;;;;;;;20.68;86.23;101449.97;5034561;28;20047;-74
2023/06/11 01:39:05;;;;;;;14.10;11.70;;;;;;;20.63;87.02;101454.97;5037215;28;20037;-73
2023/06/11 01:41:48;;;;;;;16.42;12.98;;;;;;;20.76;85.74;101449.22;5042292;28;20037;-73
2023/06/11 01:44:16;;;;;;;14.20;12.73;;;;;;;20.73;85.95;101454.06;5030471;28;20138;-73
2023/06/11 01:46:42;;;;;;;16.70;12.57;;;;;;;20.64;85.96;101450.41;5064791;28;20028;-73
2023/06/11 01:49:13;;;;;;;13.27;11.98;;;;;;;20.76;84.94;101453.78;5050815;28;20080;-73
2023/06/11 01:51:41;;;;;;;15.70;12.75;;;;;;;20.57;86.84;101454.69;5071017;28;20025;-73
2023/06/11 01:54:07;;;;;;;14.90;12.90;;;;;;;20.58;86.51;101459.97;5058012;28;20952;-73
2023/06/11 01:56:33;;;;;;;15.65;12.90;;;;;;;20.60;86.74;101454.41;5041369;28;20037;-74
2023/06/11 01:59:00;;;;;;;20.58;11.77;;;;;;;20.60;86.38;101465.25;5072775;28;20680;-74
2023/06/11 02:01:28;;;;;;;15.13;12.65;;;;;;;20.57;86.09;101457.41;5064666;28;20109;-73
2023/06/11 02:03:55;;;;;;;15.25;13.27;;;;;;;20.60;85.69;101459.81;5063130;28;20117;-73
2023/06/11 02:06:21;;;;;;;14.40;12.48;;;;;;;20.55;85.62;101459.41;5064572;28;20238;-74
2023/06/11 02:08:46;;;;;;;13.88;12.45;;;;;;;20.50;86.28;101457.16;5058896;28;20025;-74
2023/06/11 02:11:12;;;;;;;17.38;13.00;;;;;;;20.43;86.64;101461.38;5041980;28;20130;-74
2023/06/11 02:13:39;;;;;;;15.45;12.05;;;;;;;20.35;87.45;101458.56;5060938;28;20041;-73
2023/06/11 02:16:05;;;;;;;17.90;13.27;;;;;;;20.37;87.29;101456.56;5049631;28;20530;-74
2023/06/11 02:18:30;;;;;;;16.10;13.52;;;;;;;20.24;88.92;101456.03;5044806;28;20033;-73
2023/06/11 02:20:56;;;;;;;17.52;13.85;;;;;;;20.07;90.58;101463.88;5047855;28;20033;-74
2023/06/11 02:23:21;;;;;;;14.50;13.00;;;;;;;19.95;91.00;101466.88;5053571;28;20040;-74
2023/06/11 02:25:47;;;;;;;15.52;13.93;;;;;;;19.88;91.52;101463.88;5065669;28;20041;-73
2023/06/11 02:28:13;;;;;;;17.48;13.52;;;;;;;19.90;90.86;101462.75;5053252;28;20024;-74
2023/06/11 02:30:41;;;;;;;17.58;12.85;;;;;;;19.88;90.47;101463.88;5058612;28;20037;-73
2023/06/11 02:33:07;;;;;;;15.65;12.73;;;;;;;19.90;90.13;101468.16;5051944;28;20043;-74
2023/06/11 02:35:36;;;;;;;14.65;13.23;;;;;;;20.00;89.51;101459.19;5045759;28;20051;-74
2023/06/11 02:38:01;;;;;;;17.25;13.68;;;;;;;19.94;90.08;101457.06;5053771;28;20055;-74
2023/06/11 02:40:27;;;;;;;16.55;13.23;;;;;;;19.97;89.61;101460.31;5046977;28;20075;-74
2023/06/11 02:42:53;;;;;;;17.02;12.63;;;;;;;19.77;91.51;101456.75;5056978;28;20806;-74
2023/06/11 02:45:19;;;;;;;14.18;12.70;;;;;;;19.85;91.01;101454.19;5065472;28;20045;-73
2023/06/11 02:47:44;;;;;;;18.55;12.57;;;;;;;19.84;90.37;101457.06;5049181;28;20045;-74
2023/06/11 02:50:11;;;;;;;17.02;12.43;;;;;;;19.90;89.46;101456.47;5032954;28;20048;-74
2023/06/11 02:52:36;;;;;;;14.68;11.52;;;;;;;19.85;89.51;101451.50;5055294;28;20041;-74
2023/06/11 02:55:02;;;;;;;13.82;12.18;;;;;;;19.85;88.68;101454.19;5061624;28;20087;-73
2023/06/11 02:57:29;;;;;;;15.07;12.23;;;;;;;19.82;89.11;101453.63;5065118;28;20037;-74
2023/06/11 02:59:54;;;;;;;15.38;12.65;;;;;;;19.86;88.25;101460.47;5072970;28;20032;-73
2023/06/11 03:02:20;;;;;;;15.68;11.82;;;;;;;19.84;88.52;101457.91;5052028;28;20036;-73
2023/06/11 03:04:45;;;;;;;14.65;11.80;;;;;;;19.88;88.42;101455.75;5053785;28;20044;-74
2023/06/11 03:07:11;;;;;;;16.20;12.13;;;;;;;19.82;88.28;101454.47;5042039;28;20029;-74
2023/06/11 03:09:37;;;;;;;17.00;11.85;;;;;;;19.69;88.85;101456.63;5019803;28;20032;-73
2023/06/11 03:12:02;;;;;;;15.55;11.38;;;;;;;19.82;88.93;101456.31;5062377;28;20052;-73
2023/06/11 03:14:29;;;;;;;13.73;12.13;;;;;;;19.84;89.17;101460.63;5052647;28;21076;-74
2023/06/11 03:16:55;;;;;;;14.27;12.70;;;;;;;19.75;89.39;101457.91;5050133;28;20521;-74
2023/06/11 03:19:20;;;;;;;16.83;12.18;;;;;;;19.85;88.96;101461.47;5054967;28;20079;-74
2023/06/11 03:21:48;;;;;;;15.05;12.15;;;;;;;19.80;88.75;101456.47;5039916;28;20041;-73
2023/06/11 03:24:15;;;;;;;17.98;12.50;;;;;;;19.78;89.57;101463.91;5050728;28;20040;-74
2023/06/11 03:26:41;;;;;;;12.95;11.02;;;;;;;19.96;87.72;101455.91;5067680;28;20101;-73
2023/06/11 03:29:07;;;;;;;15.70;11.93;;;;;;;20.11;87.03;101450.91;5041420;28;20103;-74
2023/06/11 03:31:41;;;;;;;17.17;11.23;;;;;;;20.18;86.28;101449.31;5065115;28;20048;-74
2023/06/11 03:34:07;;;;;;;13.43;11.40;;;;;;;20.41;85.36;101463.41;5035393;28;20033;-73
2023/06/11 03:36:36;;;;;;;15.73;11.73;;;;;;;20.68;82.83;101455.38;5057283;28;20037;-73
2023/06/11 03:39:05;;;;;;;15.85;12.13;;;;;;;20.96;81.51;101455.41;5051063;28;20113;-72
2023/06/11 03:41:31;;;;;;;16.60;12.35;;;;;;;21.29;79.18;101466.66;5038608;28;20407;-73
2023/06/11 03:43:57;;;;;;;18.02;11.82;;;;;;;21.51;76.61;101458.13;5045615;28;21036;-73
2023/06/11 03:46:23;;;;;;;18.13;12.40;;;;;;;21.83;74.91;101457.56;5039319;28;20119;-73
2023/06/11 03:48:49;;;;;;;13.55;12.15;;;;;;;22.15;73.39;101459.78;5042208;28;20475;-73
2023/06/11 03:51:15;;;;;;;15.50;12.70;;;;;;;22.50;72.07;101458.00;5014728;28;20750;-73
2023/06/11 03:53:41;;;;;;;15.88;11.40;;;;;;;22.91;70.57;101455.53;5034133;28;20048;-73
2023/06/11 03:56:07;;;;;;;12.88;11.52;;;;;;;23.31;67.85;101454.00;5046086;28;20037;-73
2023/06/11 03:58:32;;;;;;;14.98;11.65;;;;;;;23.50;67.77;101449.13;5042702;28;20084;-74
2023/06/11 04:00:58;;;;;;;15.32;11.85;;;;;;;23.77;66.35;101460.75;5044019;28;20095;-73
2023/06/11 04:03:24;;;;;;;12.43;11.10;;;;;;;24.15;65.61;101463.84;5036994;28;20147;-73
2023/06/11 04:05:50;;;;;;;14.75;11.82;;;;;;;24.62;62.33;101463.97;5033970;28;20042;-73
2023/06/11 04:08:16;;;;;;;18.92;11.98;;;;;;;24.91;63.02;101462.56;5040647;28;20036;-73
2023/06/11 04:10:43;;;;;;;12.57;11.30;;;;;;;25.31;61.11;101464.28;5029336;28;20038;-73
2023/06/11 04:13:10;;;;;;;14.40;11.07;;;;;;;25.60;60.57;101460.84;5038498;28;20088;-73
2023/06/11 04:15:36;;;;;;;15.75;12.38;;;;;;;25.88;59.41;101455.75;5037862;28;20034;-73
2023/06/11 04:18:05;;;;;;;14.32;11.75;;;;;;;26.33;58.42;101457.56;5015207;28;20925;-73
2023/06/11 04:20:32;;;;;;;13.00;11.63;;;;;;;26.65;57.09;101458.28;5036694;28;20037;-72
2023/06/11 04:22:58;;;;;;;12.35;11.15;;;;;;;26.90;56.52;101460.75;5029968;28;20037;-72
2023/06/11 04:25:24;;;;;;;12.75;11.13;;;;;;;27.28;54.84;101459.63;5036304;28;20041;-73
2023/06/11 04:27:52;;;;;;;11.82;10.23;;;;;;;27.58;54.32;101456.81;5035410;28;20041;-72
2023/06/11 04:30:20;;;;;;;13.88;12.10;;;;;;;27.85;53.23;101464.28;5047311;28;20153;-73
2023/06/11 04:32:54;;;;;;;12.40;11.03;;;;;;;28.19;52.77;101470.09;5040463;28;20075;-73
2023/06/11 04:35:22;;;;;;;;;;;;;;;28.42;51.66;101459.78;5043727;28;20369;-73
2023/06/11 04:37:48;;;;;;;12.73;11.35;;;;;;;28.75;51.27;101462.72;5057634;28;19971;-73
2023/06/11 04:40:20;;;;;;;13.05;10.57;;;;;;;29.06;51.88;101469.69;5034958;28;20044;-73
2023/06/11 04:42:46;;;;;;;13.68;11.93;;;;;;;29.26;49.72;101467.03;5048424;28;20703;-73
2023/06/11 04:45:18;;;;;;;13.70;10.85;;;;;;;29.38;50.18;101462.66;5042232;28;20041;-73
2023/06/11 04:47:45;;;;;;;13.77;11.50;;;;;;;28.86;48.26;101464.03;5040508;28;20475;-73
2023/06/11 04:50:12;;;;;;;14.05;11.50;;;;;;;29.52;48.40;101458.88;5021898;28;20034;-73
2023/06/11 04:52:42;;;;;;;19.38;12.18;;;;;;;30.05;48.17;101464.50;5041038;28;20156;-73
2023/06/11 04:55:12;;;;;;;12.43;11.23;;;;;;;30.50;45.77;101453.72;5047065;28;20148;-73
2023/06/11 04:57:42;;;;;;;14.00;11.80;;;;;;;30.57;45.28;101467.47;5048938;28;20076;-73
2023/06/11 05:00:11;;;;;;;12.13;10.87;;;;;;;30.66;45.18;101463.44;5032932;28;20040;-73
2023/06/11 05:02:44;;;;;;;13.77;11.93;;;;;;;30.60;45.20;101461.53;5037030;28;20029;-73
2023/06/11 05:05:11;;;;;;;14.18;10.55;;;;;;;30.61;45.08;101469.59;5042323;28;20037;-73
2023/06/11 05:07:37;;;;;;;12.57;10.70;;;;;;;30.49;45.00;101462.19;5040193;28;20136;-73
2023/06/11 05:10:05;;;;;;;15.80;11.05;;;;;;;30.51;44.24;101463.66;5032106;28;20045;-73
2023/06/11 05:12:32;;;;;;;11.98;10.40;;;;;;;30.97;44.98;101462.75;5045644;28;20044;-73
2023/06/11 05:14:58;;;;;;;11.48;10.27;;;;;;;30.36;44.61;101468.56;5047146;28;20038;-74
2023/06/11 05:17:24;;;;;;;12.40;10.50;;;;;;;30.61;44.79;101461.31;5036097;28;20057;-73
2023/06/11 05:19:51;;;;;;;11.80;9.02;;;;;;;29.63;45.00;101466.56;5035699;28;20621;-73
2023/06/11 05:22:16;;;;;;;10.23;8.85;;;;;;;29.92;44.33;101465.34;5033182;28;20049;-73
2023/06/11 05:24:43;;;;;;;11.57;10.38;;;;;;;30.11;44.19;101469.16;5032258;28;20029;-74
2023/06/11 05:27:10;;;;;;;11.55;9.18;;;;;;;30.20;44.84;101471.75;5036069;28;20114;-73
2023/06/11 05:29:37;;;;;;;12.93;10.27;;;;;;;29.96;44.17;101464.91;5061160;28;20040;-74
2023/06/11 05:32:08;;;;;;;10.73;9.65;;;;;;;30.09;44.53;101456.69;5046800;28;20204;-73
2023/06/11 05:34:40;;;;;;;13.23;9.95;;;;;;;29.58;44.94;101469.09;5047719;28;20509;-73
2023/06/11 05:37:12;;;;;;;13.32;9.82;;;;;;;30.02;45.40;101469.56;5045262;28;20053;-73
2023/06/11 05:39:41;;;;;;;10.60;9.55;;;;;;;29.85;44.35;101477.38;5053372;28;20556;-74
2023/06/11 05:42:10;;;;;;;11.35;10.25;;;;;;;28.83;46.94;101481.78;5036800;28;20057;-73
2023/06/11 05:44:37;;;;;;;10.93;9.88;;;;;;;29.50;45.89;101476.63;5045456;28;20134;-73
2023/06/11 05:47:02;;;;;;;16.25;10.45;;;;;;;29.65;46.68;101480.09;5041544;28;20037;-73
2023/06/11 05:49:28;;;;;;;13.45;10.23;;;;;;;30.04;46.17;101472.97;5038898;28;21385;-73
2023/06/11 05:51:54;;;;;;;11.95;10.75;;;;;;;29.26;46.66;101484.34;5037561;28;20560;-73
2023/06/11 05:54:20;;;;;;;12.90;9.98;;;;;;;28.57;47.88;101478.88;5044536;28;20107;-73
2023/06/11 05:56:46;;;;;;;14.05;10.13;;;;;;;28.04;47.94;101479.22;5044650;28;20307;-74
2023/06/11 05:59:12;;;;;;;12.30;10.90;;;;;;;27.99;48.36;101478.13;5031200;28;20044;-73
2023/06/11 06:01:45;;;;;;;12.93;10.57;;;;;;;27.67;48.76;101485.78;5035923;28;20029;-73
2023/06/11 06:04:13;;;;;;;12.45;9.70;;;;;;;27.28;49.83;101488.91;5034560;28;20037;-74
2023/06/11 06:06:41;;;;;;;15.55;10.93;;;;;;;27.22;49.98;101497.91;5025293;28;20167;-73
2023/06/11 06:09:07;;;;;;;12.68;10.50;;;;;;;27.36;50.72;101497.00;5017440;28;20117;-73
2023/06/11 06:11:33;;;;;;;11.00;9.85;;;;;;;28.23;49.91;101496.09;5045424;28;20140;-73
2023/06/11 06:13:58;;;;;;;18.88;10.52;;;;;;;28.78;49.05;101497.19;5046510;28;20030;-74
2023/06/11 06:16:24;;;;;;;11.45;10.25;;;;;;;28.96;48.75;101497.50;5032095;28;20041;-74
2023/06/11 06:18:50;;;;;;;11.20;9.23;;;;;;;29.36;48.04;101498.56;5034548;28;20951;-74
2023/06/11 06:21:15;;;;;;;10.80;9.70;;;;;;;29.49;46.89;101499.69;5043274;28;20041;-74
2023/06/11 06:23:42;;;;;;;10.57;8.80;;;;;;;28.64;48.29;101498.97;5043041;28;20030;-75
2023/06/11 06:26:12;;;;;;;13.00;10.20;;;;;;;28.97;48.55;101504.72;5031902;28;20029;-74
2023/06/11 06:28:41;;;;;;;11.40;10.30;;;;;;;28.60;48.65;101506.75;5047505;28;21017;-74
2023/06/11 06:31:12;;;;;;;14.43;9.90;;;;;;;28.46;49.48;101507.69;5033207;28;20072;-74
2023/06/11 06:33:41;;;;;;;12.30;9.23;;;;;;;27.94;49.66;101497.91;5031830;28;20029;-75
2023/06/11 06:36:07;;;;;;;11.70;9.30;;;;;;;28.17;49.36;101505.09;5045006;28;20905;-73
2023/06/11 06:38:34;;;;;;;10.60;9.60;;;;;;;27.84;49.47;101506.44;5044832;28;20050;-73
2023/06/11 06:41:01;;;;;;;11.10;10.00;;;;;;;28.31;49.63;101504.16;5047799;28;20060;-73
2023/06/11 06:43:27;;;;;;;12.20;9.23;;;;;;;28.66;49.80;101502.34;5041128;28;20033;-73
2023/06/11 06:45:56;;;;;;;11.75;9.13;;;;;;;29.13;49.20;101498.03;5045860;28;20042;-73
2023/06/11 06:48:26;;;;;;;13.90;9.02;;;;;;;28.59;49.46;101512.44;5040071;28;20041;-73
2023/06/11 06:50:53;;;;;;;12.00;9.07;;;;;;;28.25;51.02;101510.44;5022967;28;20550;-73
2023/06/11 06:53:18;;;;;;;12.60;9.57;;;;;;;29.03;51.21;101509.41;5028963;28;20247;-72
2023/06/11 06:55:45;;;;;;;15.00;10.93;;;;;;;29.27;50.07;101508.06;5045869;28;20038;-74
2023/06/11 06:58:12;;;;;;;10.30;9.18;;;;;;;29.22;48.93;101509.69;5042207;28;20033;-74
2023/06/11 07:00:37;;;;;;;10.65;9.55;;;;;;;28.59;49.96;101513.28;5039688;28;20028;-74
2023/06/11 07:03:03;;;;;;;14.57;9.20;;;;;;;28.79;49.85;101507.94;5022014;28;20490;-73
2023/06/11 07:05:28;;;;;;;11.13;8.98;;;;;;;28.40;50.38;101513.97;5028824;28;20402;-73
2023/06/11 07:07:55;;;;;;;10.13;8.82;;;;;;;29.05;49.24;101512.78;5014169;28;20151;-74
2023/06/11 07:10:21;;;;;;;13.07;9.48;;;;;;;28.78;49.30;101517.25;5037553;28;20069;-73
2023/06/11 07:12:48;;;;;;;12.07;9.00;;;;;;;29.06;49.01;101514.47;5017480;28;20031;-72
2023/06/11 07:15:15;;;;;;;9.60;8.68;;;;;;;28.54;49.63;101518.53;5034741;28;20044;-73
2023/06/11 07:17:41;;;;;;;10.95;8.77;;;;;;;28.90;49.98;101517.50;5039652;28;20041;-75
2023/06/11 07:20:10;;;;;;;10.02;9.13;;;;;;;28.58;49.51;101524.47;5022075;28;20026;-75
2023/06/11 07:22:36;;;;;;;11.00;9.20;;;;;;;28.65;49.09;101519.88;5024638;28;20119;-76
2023/06/11 07:25:03;;;;;;;11.27;8.65;;;;;;;28.49;49.13;101514.69;5040127;28;20536;-75
2023/06/11 07:27:29;;;;;;;12.38;9.00;;;;;;;28.13;49.44;101510.97;5043218;28;20037;-75
2023/06/11 07:29:55;;;;;;;9.90;8.88;;;;;;;27.88;49.96;101513.25;5033736;28;20033;-75
2023/06/11 07:32:21;;;;;;;11.70;8.40;;;;;;;28.74;49.81;101517.84;5037395;28;20459;-73
2023/06/11 07:34:47;;;;;;;9.70;8.32;;;;;;;29.38;49.30;101518.44;5026542;28;20041;-73
2023/06/11 07:37:12;;;;;;;9.18;8.25;;;;;;;29.50;47.62;101517.84;5041996;28;20037;-74
2023/06/11 07:39:40;;;;;;;11.18;8.45;;;;;;;29.43;47.85;101509.59;5039004;28;20529;-76
2023/06/11 07:42:07;;;;;;;10.20;8.02;;;;;;;30.10;48.59;101505.97;5030100;28;20049;-73
2023/06/11 07:44:34;;;;;;;12.40;8.65;;;;;;;29.05;47.23;101509.19;5029698;28;20033;-73
2023/06/11 07:47:00;;;;;;;10.80;8.52;;;;;;;29.00;47.91;101512.53;5028727;28;20029;-74
2023/06/11 07:49:26;;;;;;;11.38;7.47;;;;;;;29.67;47.41;101508.22;5044180;28;20621;-73
2023/06/11 07:51:51;;;;;;;12.15;8.52;;;;;;;30.12;46.95;101512.16;5045747;28;20924;-72
2023/06/11 07:54:17;;;;;;;8.93;8.13;;;;;;;29.80;47.17;101512.91;5046990;28;20497;-73
2023/06/11 07:56:46;;;;;;;9.48;7.97;;;;;;;29.55;46.08;101518.13;5037378;28;20068;-74
2023/06/11 07:59:12;;;;;;;10.70;8.32;;;;;;;29.95;47.35;101519.06;5022155;28;20203;-73
2023/06/11 08:01:41;;;;;;;10.85;9.07;;;;;;;29.52;47.37;101515.75;5042969;28;20096;-73
2023/06/11 08:04:07;;;;;;;14.50;9.38;;;;;;;29.75;47.04;101508.03;5042928;28;20099;-74
2023/06/11 08:06:33;;;;;;;10.68;8.30;;;;;;;29.90;47.08;101510.59;5041279;28;20407;-74
2023/06/11 08:08:59;;;;;;;10.65;8.07;;;;;;;29.56;46.69;101506.06;5031564;28;20030;-73
2023/06/11 08:11:25;;;;;;;12.25;8.40;;;;;;;29.69;46.66;101508.88;5048335;28;20041;-73
2023/06/11 08:13:51;;;;;;;12.02;8.45;;;;;;;29.16;46.65;101509.44;5044623;28;20044;-74
2023/06/11 08:16:17;;;;;;;13.38;8.85;;;;;;;29.41;46.87;101508.94;5036218;28;20478;-73
2023/06/11 08:18:42;;;;;;;9.50;8.48;;;;;;;30.02;46.67;101494.31;5048205;28;20079;-74
2023/06/11 08:21:11;;;;;;;10.98;7.80;;;;;;;29.78;46.17;101510.38;5046456;28;20034;-74
2023/06/11 08:23:41;;;;;;;16.00;8.10;;;;;;;29.67;46.66;101508.22;5047462;28;20092;-74
2023/06/11 08:26:07;;;;;;;13.48;8.10;;;;;;;29.58;46.05;101512.22;5042376;28;20204;-74
2023/06/11 08:28:32;;;;;;;9.23;8.10;;;;;;;29.52;47.22;101505.63;5043788;28;20041;-73
2023/06/11 08:30:58;;;;;;;9.45;8.18;;;;;;;29.57;46.60;101505.00;5045654;28;20123;-74
2023/06/11 08:33:23;;;;;;;11.35;8.25;;;;;;;29.69;45.57;101499.78;5046620;28;20044;-74
2023/06/11 08:35:49;;;;;;;11.02;8.13;;;;;;;29.32;46.67;101510.16;5044867;28;20162;-74
2023/06/11 08:38:15;;;;;;;9.75;8.13;;;;;;;29.67;47.10;101506.34;5051615;28;20074;-74
2023/06/11 08:40:42;;;;;;;12.70;8.95;;;;;;;29.42;46.76;101505.16;5067387;28;20064;-74
2023/06/11 08:43:10;;;;;;;11.65;8.32;;;;;;;29.70;47.25;101493.22;5064094;28;20033;-74
2023/06/11 08:45:36;;;;;;;9.88;7.88;;;;;;;30.14;45.96;101490.78;5050759;28;20041;-73
2023/06/11 08:48:03;;;;;;;16.83;8.20;;;;;;;30.98;46.66;101491.13;5066987;28;20079;-74
2023/06/11 08:50:31;;;;;;;11.38;8.73;;;;;;;29.72;45.46;101491.09;5063433;28;20063;-74
2023/06/11 08:53:01;;;;;;;12.32;8.65;;;;;;;30.09;46.75;101484.19;5066172;28;20122;-74
2023/06/11 08:55:28;;;;;;;13.13;9.10;;;;;;;30.75;47.62;101488.88;5066229;28;20372;-74
2023/06/11 08:57:54;;;;;;;13.70;8.45;;;;;;;30.31;46.22;101491.19;5063548;28;20089;-74
2023/06/11 09:00:21;;;;;;;14.40;9.43;;;;;;;30.43;46.27;101494.19;5060277;28;20040;-74
2023/06/11 09:02:47;;;;;;;14.35;8.35;;;;;;;30.49;45.14;101482.31;5060213;28;20148;-72
2023/06/11 09:05:13;;;;;;;12.20;7.68;;;;;;;30.66;45.03;101486.31;5049822;28;20033;-73
2023/06/11 09:07:59;;;;;;;13.05;7.75;;;;;;;30.97;44.00;101487.53;5067338;28;20041;-74
2023/06/11 09:10:26;;;;;;;13.77;9.00;;;;;;;29.99;46.14;101483.75;5065000;28;20036;-74
2023/06/11 09:12:54;;;;;;;13.75;7.88;;;;;;;30.08;45.67;101488.00;5062341;28;20044;-75
2023/06/11 09:15:20;;;;;;;9.35;8.40;;;;;;;29.90;45.29;101481.19;5055659;28;20865;-74
2023/06/11 09:17:48;;;;;;;8.07;7.20;;;;;;;29.75;46.47;101487.94;5065679;28;20982;-74
2023/06/11 09:20:15;;;;;;;14.60;8.73;;;;;;;29.95;47.24;101479.72;5063706;28;20037;-74
2023/06/11 09:22:43;;;;;;;13.63;8.43;;;;;;;30.25;46.77;101482.97;5066497;28;20036;-80
2023/06/11 09:25:19;;;;;;;9.00;8.00;;;;;;;29.98;46.57;101484.81;5046909;28;20037;-73
2023/06/11 09:27:46;;;;;;;9.30;7.47;;;;;;;29.97;46.16;101483.94;5058461;28;20636;-73
2023/06/11 09:30:17;;;;;;;9.15;7.82;;;;;;;30.31;47.33;101491.19;5061750;28;20061;-73
2023/06/11 09:32:44;;;;;;;8.77;7.70;;;;;;;30.81;47.12;101486.09;5064294;28;20044;-73
2023/06/11 09:35:11;;;;;;;13.75;7.70;;;;;;;30.30;45.80;101478.50;5059392;28;20923;-74
2023/06/11 09:37:45;;;;;;;10.90;7.82;;;;;;;30.28;45.30;101485.28;5044990;28;20138;-73
2023/06/11 09:40:15;;;;;;;11.95;7.30;;;;;;;30.39;45.33;101484.66;5038312;28;20065;-73
2023/06/11 09:42:45;;;;;;;9.57;7.13;;;;;;;30.19;44.51;101487.41;5048316;28;20047;-73
2023/06/11 09:45:16;;;;;;;12.75;8.07;;;;;;;29.86;45.20;101495.56;5046611;28;20033;-72
2023/06/11 09:47:44;;;;;;;8.55;7.80;;;;;;;30.24;44.86;101487.63;5047750;28;20435;-73
2023/06/11 09:50:13;;;;;;;8.27;7.32;;;;;;;30.52;44.52;101490.13;5046326;28;20025;-73
2023/06/11 09:52:42;;;;;;;11.93;7.60;;;;;;;29.95;43.95;101493.47;5046514;28;20110;-72
2023/06/11 09:55:11;;;;;;;11.65;8.27;;;;;;;29.87;44.69;101486.25;5051111;28;20052;-73
2023/06/11 09:57:42;;;;;;;10.65;8.20;;;;;;;30.06;44.59;101495.59;5040173;28;20132;-73
2023/06/11 10:00:11;;;;;;;10.15;8.15;;;;;;;29.91;44.63;101485.63;5045785;28;20041;-73
2023/06/11 10:02:45;;;;;;;9.35;8.13;;;;;;;30.10;45.54;101483.13;5043150;28;20025;-73
2023/06/11 10:05:12;;;;;;;10.35;7.95;;;;;;;30.35;45.04;101491.63;5047461;28;20045;-73
2023/06/11 10:08:02;;;;;;;11.18;7.90;;;;;;;30.67;44.80;101488.03;5048417;28;20173;-72
2023/06/11 10:10:31;;;;;;;12.57;7.75;;;;;;;30.47;43.51;101492.66;5047330;28;20125;-73
2023/06/11 10:12:57;;;;;;;8.88;7.70;;;;;;;30.08;43.98;101490.75;5046876;28;20036;-73
2023/06/11 10:15:24;;;;;;;8.43;7.53;;;;;;;30.64;44.32;101493.09;5054017;28;20387;-73
2023/06/11 10:17:52;;;;;;;10.73;7.97;;;;;;;29.95;44.35;101491.56;5043293;28;20041;-73
2023/06/11 10:20:25;;;;;;;10.30;7.35;;;;;;;30.87;44.01;101487.13;5048895;28;20044;-72
2023/06/11 10:23:03;;;;;;;15.25;7.43;;;;;;;30.58;42.40;101485.69;5043304;28;20077;-73
2023/06/11 10:25:36;;;;;;;8.55;7.68;;;;;;;30.40;43.17;101478.94;5038320;28;20050;-73
2023/06/11 10:28:01;;;;;;;12.13;7.18;;;;;;;30.85;43.15;101489.28;5043501;28;20061;-72
2023/06/11 10:30:27;;;;;;;13.18;8.45;;;;;;;30.53;44.00;101489.09;5038820;28;20044;-73
2023/06/11 10:32:53;;;;;;;7.93;7.13;;;;;;;30.28;43.13;101482.53;5040041;28;20101;-73
2023/06/11 10:35:32;;;;;;;10.85;6.80;;;;;;;30.98;43.82;101481.00;5047305;28;20087;-73
2023/06/11 10:38:16;;;;;;;10.40;6.70;;;;;;;30.78;42.59;101471.94;5046164;28;20056;-72
2023/06/11 10:40:42;;;;;;;14.18;7.63;;;;;;;30.74;43.08;101479.78;5044288;28;20116;-73
2023/06/11 10:43:20;;;;;;;7.82;7.03;;;;;;;30.59;42.32;101477.22;5050618;28;21071;-73
2023/06/11 10:45:46;;;;;;;12.13;7.80;;;;;;;30.84;44.01;101484.84;5041963;28;20033;-73
2023/06/11 10:48:12;;;;;;;11.05;7.75;;;;;;;31.10;42.37;101470.13;5029107;28;20115;-72
2023/06/11 10:50:40;;;;;;;10.55;7.60;;;;;;;30.93;42.38;101478.03;5043324;28;20850;-75
2023/06/11 10:53:13;;;;;;;10.45;7.75;;;;;;;31.38;42.88;101478.97;5021501;28;20844;-72
2023/06/11 10:55:47;;;;;;;8.73;7.80;;;;;;;30.93;42.19;101481.63;5044155;28;20049;-73
2023/06/11 10:58:22;;;;;;;8.32;7.47;;;;;;;31.33;43.68;101486.19;5046635;28;20063;-72
2023/06/11 11:00:52;;;;;;;9.23;7.47;;;;;;;31.17;43.13;101480.03;5045226;28;20160;-74
2023/06/11 11:03:21;;;;;;;15.70;8.30;;;;;;;31.53;43.49;101473.16;5041243;28;20584;-74
2023/06/11 11:05:49;;;;;;;13.50;8.25;;;;;;;31.17;41.22;101479.19;5043439;28;20096;-73
2023/06/11 11:08:16;;;;;;;9.88;8.23;;;;;;;30.93;43.02;101478.88;5044579;28;20021;-74
2023/06/11 11:10:42;;;;;;;8.63;7.30;;;;;;;30.47;43.24;101476.16;5042958;28;20059;-73
2023/06/11 11:13:11;;;;;;;13.18;8.10;;;;;;;30.42;43.29;101471.31;5049027;28;20036;-73
2023/06/11 11:15:37;;;;;;;11.35;8.50;;;;;;;30.16;42.59;101471.31;5039468;28;20136;-73
2023/06/11 11:18:03;;;;;;;14.57;9.18;;;;;;;30.05;42.89;101470.00;5045149;28;20040;-74